sensor_id;sensor_type;location;lat;lon;timestamp;P1;durP1;ratioP1;P2;durP2;ratioP2
35257;SDS011;21385;50.878;8.050;2022-07-06T00:01:28;3.28;;;1.40;;
35257;SDS011;21385;50.878;8.050;2022-07-06T00:03:54;6.18;;;1.80;;
35257;SDS011;21385;50.878;8.050;2022-07-06T00:06:20;5.63;;;1.40;;
35257;SDS011;21385;50.878;8.050;2022-07-06T00:08:46;4.65;;;1.75;;
35257;SDS011;21385;50.878;8.050;2022-07-06T00:11:11;4.43;;;1.58;;
35257;SDS011;21385;50.878;8.050;2022-07-06T00:13:37;5.65;;;2.20;;
35257;SDS011;21385;50.878;8.050;2022-07-06T00:16:03;3.00;;;1.60;;
35257;SDS011;21385;50.878;8.050;2022-07-06T00:18:28;3.72;;;1.48;;
35257;SDS011;21385;50.878;8.050;2022-07-06T00:20:54;3.55;;;1.60;;
35257;SDS011;21385;50.878;8.050;2022-07-06T00:23:20;7.25;;;1.55;;
35257;SDS011;21385;50.878;8.050;2022-07-06T00:25:46;2.60;;;1.60;;
35257;SDS011;21385;50.878;8.050;2022-07-06T00:28:13;2.97;;;1.80;;
35257;SDS011;21385;50.878;8.050;2022-07-06T00:30:39;4.55;;;1.80;;
35257;SDS011;21385;50.878;8.050;2022-07-06T00:33:04;4.28;;;1.90;;
35257;SDS011;21385;50.878;8.050;2022-07-06T00:35:30;3.38;;;1.20;;
35257;SDS011;21385;50.878;8.050;2022-07-06T00:37:56;7.95;;;2.85;;
35257;SDS011;21385;50.878;8.050;2022-07-06T00:40:21;4.03;;;1.67;;
35257;SDS011;21385;50.878;8.050;2022-07-06T00:42:47;5.68;;;3.20;;
35257;SDS011;21385;50.878;8.050;2022-07-06T00:45:14;9.43;;;3.40;;
35257;SDS011;21385;50.878;8.050;2022-07-06T00:47:41;7.78;;;2.70;;
35257;SDS011;21385;50.878;8.050;2022-07-06T00:50:07;6.10;;;3.03;;
35257;SDS011;21385;50.878;8.050;2022-07-06T00:52:46;4.85;;;3.03;;
35257;SDS011;21385;50.878;8.050;2022-07-06T00:55:25;7.90;;;3.28;;
35257;SDS011;21385;50.878;8.050;2022-07-06T00:57:52;6.28;;;2.72;;
35257;SDS011;21385;50.878;8.050;2022-07-06T01:00:19;6.95;;;3.33;;
35257;SDS011;21385;50.878;8.050;2022-07-06T01:02:46;7.35;;;4.68;;
35257;SDS011;21385;50.878;8.050;2022-07-06T01:05:13;4.78;;;2.80;;
35257;SDS011;21385;50.878;8.050;2022-07-06T01:07:43;10.20;;;2.70;;
35257;SDS011;21385;50.878;8.050;2022-07-06T01:10:10;8.93;;;2.60;;
35257;SDS011;21385;50.878;8.050;2022-07-06T01:12:38;4.32;;;2.75;;
35257;SDS011;21385;50.878;8.050;2022-07-06T01:15:06;6.53;;;3.25;;
35257;SDS011;21385;50.878;8.050;2022-07-06T01:17:33;3.67;;;2.35;;
35257;SDS011;21385;50.878;8.050;2022-07-06T01:20:32;8.63;;;2.03;;
35257;SDS011;21385;50.878;8.050;2022-07-06T01:22:52;5.25;;;2.17;;
35257;SDS011;21385;50.878;8.050;2022-07-06T01:25:19;4.82;;;2.30;;
35257;SDS011;21385;50.878;8.050;2022-07-06T01:27:45;4.65;;;2.33;;
35257;SDS011;21385;50.878;8.050;2022-07-06T01:30:14;8.60;;;2.85;;
35257;SDS011;21385;50.878;8.050;2022-07-06T01:32:42;7.20;;;3.22;;
35257;SDS011;21385;50.878;8.050;2022-07-06T01:35:09;6.80;;;2.85;;
35257;SDS011;21385;50.878;8.050;2022-07-06T01:37:37;9.38;;;3.20;;
35257;SDS011;21385;50.878;8.050;2022-07-06T01:40:03;6.18;;;3.13;;
35257;SDS011;21385;50.878;8.050;2022-07-06T01:42:30;5.78;;;2.55;;
35257;SDS011;21385;50.878;8.050;2022-07-06T01:44:56;5.22;;;2.55;;
35257;SDS011;21385;50.878;8.050;2022-07-06T01:47:22;4.72;;;2.00;;
35257;SDS011;21385;50.878;8.050;2022-07-06T01:49:48;6.18;;;1.98;;
35257;SDS011;21385;50.878;8.050;2022-07-06T01:52:14;4.07;;;2.00;;
35257;SDS011;21385;50.878;8.050;2022-07-06T01:54:40;4.35;;;1.83;;
35257;SDS011;21385;50.878;8.050;2022-07-06T01:57:05;7.75;;;2.10;;
35257;SDS011;21385;50.878;8.050;2022-07-06T01:59:31;7.55;;;1.65;;
35257;SDS011;21385;50.878;8.050;2022-07-06T02:01:57;2.47;;;1.50;;
35257;SDS011;21385;50.878;8.050;2022-07-06T02:04:22;4.50;;;1.50;;
35257;SDS011;21385;50.878;8.050;2022-07-06T02:06:48;4.72;;;1.50;;
35257;SDS011;21385;50.878;8.050;2022-07-06T02:09:14;4.07;;;1.20;;
35257;SDS011;21385;50.878;8.050;2022-07-06T02:11:40;2.25;;;1.50;;
35257;SDS011;21385;50.878;8.050;2022-07-06T02:14:06;3.80;;;1.65;;
35257;SDS011;21385;50.878;8.050;2022-07-06T02:16:32;5.28;;;1.90;;
35257;SDS011;21385;50.878;8.050;2022-07-06T02:18:57;3.63;;;1.60;;
35257;SDS011;21385;50.878;8.050;2022-07-06T02:21:23;5.00;;;1.70;;
35257;SDS011;21385;50.878;8.050;2022-07-06T02:23:48;2.75;;;1.55;;
35257;SDS011;21385;50.878;8.050;2022-07-06T02:26:14;5.03;;;1.90;;
35257;SDS011;21385;50.878;8.050;2022-07-06T02:28:40;5.53;;;1.80;;
35257;SDS011;21385;50.878;8.050;2022-07-06T02:31:05;5.60;;;1.83;;
35257;SDS011;21385;50.878;8.050;2022-07-06T02:33:31;4.03;;;1.83;;
35257;SDS011;21385;50.878;8.050;2022-07-06T02:35:57;6.15;;;1.80;;
35257;SDS011;21385;50.878;8.050;2022-07-06T02:38:22;2.63;;;1.90;;
35257;SDS011;21385;50.878;8.050;2022-07-06T02:40:48;5.43;;;2.20;;
35257;SDS011;21385;50.878;8.050;2022-07-06T02:43:13;7.22;;;2.00;;
35257;SDS011;21385;50.878;8.050;2022-07-06T02:45:39;6.65;;;2.05;;
35257;SDS011;21385;50.878;8.050;2022-07-06T02:48:05;6.15;;;2.40;;
35257;SDS011;21385;50.878;8.050;2022-07-06T02:50:30;6.63;;;2.10;;
35257;SDS011;21385;50.878;8.050;2022-07-06T02:52:56;4.45;;;2.28;;
35257;SDS011;21385;50.878;8.050;2022-07-06T02:55:23;6.63;;;2.13;;
35257;SDS011;21385;50.878;8.050;2022-07-06T02:57:49;5.90;;;2.13;;
35257;SDS011;21385;50.878;8.050;2022-07-06T03:00:14;4.53;;;2.30;;
35257;SDS011;21385;50.878;8.050;2022-07-06T03:02:41;5.40;;;1.92;;
35257;SDS011;21385;50.878;8.050;2022-07-06T03:05:07;5.15;;;1.95;;
35257;SDS011;21385;50.878;8.050;2022-07-06T03:07:33;6.63;;;1.92;;
35257;SDS011;21385;50.878;8.050;2022-07-06T03:09:58;2.35;;;1.45;;
35257;SDS011;21385;50.878;8.050;2022-07-06T03:12:24;4.72;;;1.85;;
35257;SDS011;21385;50.878;8.050;2022-07-06T03:14:49;4.88;;;2.20;;
35257;SDS011;21385;50.878;8.050;2022-07-06T03:17:15;5.43;;;2.08;;
35257;SDS011;21385;50.878;8.050;2022-07-06T03:19:40;4.15;;;2.13;;
35257;SDS011;21385;50.878;8.050;2022-07-06T03:22:06;10.95;;;2.80;;
35257;SDS011;21385;50.878;8.050;2022-07-06T03:24:32;10.45;;;2.42;;
35257;SDS011;21385;50.878;8.050;2022-07-06T03:26:57;4.18;;;2.22;;
35257;SDS011;21385;50.878;8.050;2022-07-06T03:29:23;5.68;;;2.50;;
35257;SDS011;21385;50.878;8.050;2022-07-06T03:31:48;3.83;;;2.25;;
35257;SDS011;21385;50.878;8.050;2022-07-06T03:34:14;3.20;;;1.98;;
35257;SDS011;21385;50.878;8.050;2022-07-06T03:36:40;5.70;;;2.35;;
35257;SDS011;21385;50.878;8.050;2022-07-06T03:39:06;4.57;;;2.80;;
35257;SDS011;21385;50.878;8.050;2022-07-06T03:41:31;10.13;;;2.92;;
35257;SDS011;21385;50.878;8.050;2022-07-06T03:43:57;5.35;;;2.75;;
35257;SDS011;21385;50.878;8.050;2022-07-06T03:46:23;7.93;;;3.20;;
35257;SDS011;21385;50.878;8.050;2022-07-06T03:48:49;4.85;;;3.08;;
35257;SDS011;21385;50.878;8.050;2022-07-06T03:51:14;8.93;;;3.40;;
35257;SDS011;21385;50.878;8.050;2022-07-06T03:53:40;9.77;;;3.95;;
35257;SDS011;21385;50.878;8.050;2022-07-06T03:56:06;6.30;;;3.65;;
35257;SDS011;21385;50.878;8.050;2022-07-06T03:58:50;6.47;;;3.38;;
35257;SDS011;21385;50.878;8.050;2022-07-06T04:01:15;6.47;;;3.65;;
35257;SDS011;21385;50.878;8.050;2022-07-06T04:03:41;9.05;;;3.83;;
35257;SDS011;21385;50.878;8.050;2022-07-06T04:06:06;5.53;;;3.70;;
35257;SDS011;21385;50.878;8.050;2022-07-06T04:08:35;7.68;;;3.30;;
35257;SDS011;21385;50.878;8.050;2022-07-06T04:11:00;8.18;;;3.80;;
35257;SDS011;21385;50.878;8.050;2022-07-06T04:13:26;8.30;;;4.00;;
35257;SDS011;21385;50.878;8.050;2022-07-06T04:15:52;7.38;;;3.72;;
35257;SDS011;21385;50.878;8.050;2022-07-06T04:18:17;7.20;;;4.25;;
35257;SDS011;21385;50.878;8.050;2022-07-06T04:20:43;8.57;;;4.50;;
35257;SDS011;21385;50.878;8.050;2022-07-06T04:23:09;6.90;;;4.90;;
35257;SDS011;21385;50.878;8.050;2022-07-06T04:25:34;6.43;;;4.57;;
35257;SDS011;21385;50.878;8.050;2022-07-06T04:28:00;7.45;;;4.03;;
35257;SDS011;21385;50.878;8.050;2022-07-06T04:30:26;9.63;;;4.40;;
35257;SDS011;21385;50.878;8.050;2022-07-06T04:32:51;4.78;;;3.00;;
35257;SDS011;21385;50.878;8.050;2022-07-06T04:35:17;5.95;;;2.10;;
35257;SDS011;21385;50.878;8.050;2022-07-06T04:37:43;7.00;;;2.35;;
35257;SDS011;21385;50.878;8.050;2022-07-06T04:40:10;4.35;;;2.63;;
35257;SDS011;21385;50.878;8.050;2022-07-06T04:42:37;5.50;;;2.25;;
35257;SDS011;21385;50.878;8.050;2022-07-06T04:45:03;7.53;;;2.55;;
35257;SDS011;21385;50.878;8.050;2022-07-06T04:47:29;6.70;;;2.75;;
35257;SDS011;21385;50.878;8.050;2022-07-06T04:49:55;4.53;;;2.60;;
35257;SDS011;21385;50.878;8.050;2022-07-06T04:52:21;7.28;;;3.55;;
35257;SDS011;21385;50.878;8.050;2022-07-06T04:54:46;6.25;;;3.05;;
35257;SDS011;21385;50.878;8.050;2022-07-06T04:57:12;5.70;;;3.30;;
35257;SDS011;21385;50.878;8.050;2022-07-06T04:59:37;7.38;;;2.75;;
35257;SDS011;21385;50.878;8.050;2022-07-06T05:02:03;5.53;;;2.33;;
35257;SDS011;21385;50.878;8.050;2022-07-06T05:04:29;6.32;;;2.92;;
35257;SDS011;21385;50.878;8.050;2022-07-06T05:06:54;10.30;;;3.10;;
35257;SDS011;21385;50.878;8.050;2022-07-06T05:09:20;7.28;;;3.05;;
35257;SDS011;21385;50.878;8.050;2022-07-06T05:11:45;4.68;;;2.10;;
35257;SDS011;21385;50.878;8.050;2022-07-06T05:14:11;6.32;;;3.20;;
35257;SDS011;21385;50.878;8.050;2022-07-06T05:16:37;4.53;;;3.05;;
35257;SDS011;21385;50.878;8.050;2022-07-06T05:19:02;6.57;;;3.05;;
35257;SDS011;21385;50.878;8.050;2022-07-06T05:21:28;3.58;;;2.20;;
35257;SDS011;21385;50.878;8.050;2022-07-06T05:23:53;8.48;;;2.70;;
35257;SDS011;21385;50.878;8.050;2022-07-06T05:26:19;5.90;;;2.92;;
35257;SDS011;21385;50.878;8.050;2022-07-06T05:28:44;4.55;;;2.58;;
35257;SDS011;21385;50.878;8.050;2022-07-06T05:31:10;6.85;;;2.05;;
35257;SDS011;21385;50.878;8.050;2022-07-06T05:33:36;5.13;;;1.95;;
35257;SDS011;21385;50.878;8.050;2022-07-06T05:36:01;3.88;;;2.13;;
35257;SDS011;21385;50.878;8.050;2022-07-06T05:38:27;10.73;;;3.05;;
35257;SDS011;21385;50.878;8.050;2022-07-06T05:40:53;5.07;;;2.72;;
35257;SDS011;21385;50.878;8.050;2022-07-06T05:43:18;3.15;;;2.00;;
35257;SDS011;21385;50.878;8.050;2022-07-06T05:45:44;8.48;;;2.50;;
35257;SDS011;21385;50.878;8.050;2022-07-06T05:48:10;3.90;;;1.63;;
35257;SDS011;21385;50.878;8.050;2022-07-06T05:50:54;4.60;;;2.13;;
35257;SDS011;21385;50.878;8.050;2022-07-06T05:53:20;4.47;;;1.90;;
35257;SDS011;21385;50.878;8.050;2022-07-06T05:55:46;4.80;;;1.70;;
35257;SDS011;21385;50.878;8.050;2022-07-06T05:58:12;6.18;;;2.15;;
35257;SDS011;21385;50.878;8.050;2022-07-06T06:00:37;6.20;;;2.35;;
35257;SDS011;21385;50.878;8.050;2022-07-06T06:03:03;3.55;;;2.10;;
35257;SDS011;21385;50.878;8.050;2022-07-06T06:05:29;4.40;;;2.60;;
35257;SDS011;21385;50.878;8.050;2022-07-06T06:07:54;7.97;;;2.05;;
35257;SDS011;21385;50.878;8.050;2022-07-06T06:10:20;4.63;;;2.00;;
35257;SDS011;21385;50.878;8.050;2022-07-06T06:12:47;9.15;;;2.70;;
35257;SDS011;21385;50.878;8.050;2022-07-06T06:15:13;2.83;;;1.85;;
35257;SDS011;21385;50.878;8.050;2022-07-06T06:17:39;4.75;;;2.05;;
35257;SDS011;21385;50.878;8.050;2022-07-06T06:20:06;2.85;;;1.60;;
35257;SDS011;21385;50.878;8.050;2022-07-06T06:22:48;2.55;;;1.40;;
35257;SDS011;21385;50.878;8.050;2022-07-06T06:25:18;3.72;;;1.50;;
35257;SDS011;21385;50.878;8.050;2022-07-06T06:27:53;6.80;;;1.90;;
35257;SDS011;21385;50.878;8.050;2022-07-06T06:30:18;3.42;;;2.13;;
35257;SDS011;21385;50.878;8.050;2022-07-06T06:32:44;2.97;;;1.80;;
35257;SDS011;21385;50.878;8.050;2022-07-06T06:35:09;6.80;;;2.28;;
35257;SDS011;21385;50.878;8.050;2022-07-06T06:37:35;4.00;;;1.55;;
35257;SDS011;21385;50.878;8.050;2022-07-06T06:40:01;5.05;;;1.98;;
35257;SDS011;21385;50.878;8.050;2022-07-06T06:42:28;5.93;;;2.45;;
35257;SDS011;21385;50.878;8.050;2022-07-06T06:44:54;4.30;;;2.10;;
35257;SDS011;21385;50.878;8.050;2022-07-06T06:47:19;4.18;;;1.70;;
35257;SDS011;21385;50.878;8.050;2022-07-06T06:49:45;5.63;;;1.60;;
35257;SDS011;21385;50.878;8.050;2022-07-06T06:52:11;3.72;;;1.83;;
35257;SDS011;21385;50.878;8.050;2022-07-06T06:54:36;5.70;;;1.92;;
35257;SDS011;21385;50.878;8.050;2022-07-06T06:57:02;3.05;;;1.92;;
35257;SDS011;21385;50.878;8.050;2022-07-06T06:59:28;5.28;;;1.58;;
35257;SDS011;21385;50.878;8.050;2022-07-06T07:01:53;3.33;;;1.58;;
35257;SDS011;21385;50.878;8.050;2022-07-06T07:04:19;4.38;;;1.65;;
35257;SDS011;21385;50.878;8.050;2022-07-06T07:06:45;5.57;;;1.45;;
35257;SDS011;21385;50.878;8.050;2022-07-06T07:09:10;4.50;;;1.33;;
35257;SDS011;21385;50.878;8.050;2022-07-06T07:11:36;5.15;;;1.83;;
35257;SDS011;21385;50.878;8.050;2022-07-06T07:14:01;4.35;;;1.88;;
35257;SDS011;21385;50.878;8.050;2022-07-06T07:16:27;5.80;;;1.60;;
35257;SDS011;21385;50.878;8.050;2022-07-06T07:18:53;6.75;;;1.50;;
35257;SDS011;21385;50.878;8.050;2022-07-06T07:21:19;4.35;;;1.45;;
35257;SDS011;21385;50.878;8.050;2022-07-06T07:23:44;2.88;;;1.50;;
35257;SDS011;21385;50.878;8.050;2022-07-06T07:26:10;2.78;;;1.63;;
35257;SDS011;21385;50.878;8.050;2022-07-06T07:28:36;2.35;;;1.10;;
35257;SDS011;21385;50.878;8.050;2022-07-06T07:31:01;4.20;;;1.15;;
35257;SDS011;21385;50.878;8.050;2022-07-06T07:33:27;3.53;;;1.30;;
35257;SDS011;21385;50.878;8.050;2022-07-06T07:35:52;3.13;;;1.20;;
35257;SDS011;21385;50.878;8.050;2022-07-06T07:38:18;4.35;;;1.40;;
35257;SDS011;21385;50.878;8.050;2022-07-06T07:40:44;5.50;;;1.30;;
35257;SDS011;21385;50.878;8.050;2022-07-06T07:43:10;5.65;;;1.30;;
35257;SDS011;21385;50.878;8.050;2022-07-06T07:45:35;3.83;;;1.38;;
35257;SDS011;21385;50.878;8.050;2022-07-06T07:48:01;2.47;;;1.10;;
35257;SDS011;21385;50.878;8.050;2022-07-06T07:50:27;3.03;;;1.60;;
35257;SDS011;21385;50.878;8.050;2022-07-06T07:52:54;6.78;;;1.10;;
35257;SDS011;21385;50.878;8.050;2022-07-06T07:55:19;3.25;;;1.15;;
35257;SDS011;21385;50.878;8.050;2022-07-06T07:57:45;1.70;;;1.00;;
35257;SDS011;21385;50.878;8.050;2022-07-06T08:00:11;4.95;;;1.05;;
35257;SDS011;21385;50.878;8.050;2022-07-06T08:02:37;2.05;;;0.73;;
35257;SDS011;21385;50.878;8.050;2022-07-06T08:05:03;1.65;;;0.98;;
35257;SDS011;21385;50.878;8.050;2022-07-06T08:07:29;2.03;;;0.73;;
35257;SDS011;21385;50.878;8.050;2022-07-06T08:09:54;3.55;;;0.90;;
35257;SDS011;21385;50.878;8.050;2022-07-06T08:12:20;2.47;;;0.90;;
35257;SDS011;21385;50.878;8.050;2022-07-06T08:14:45;3.30;;;0.93;;
35257;SDS011;21385;50.878;8.050;2022-07-06T08:17:11;2.72;;;0.80;;
35257;SDS011;21385;50.878;8.050;2022-07-06T08:19:37;3.90;;;0.70;;
35257;SDS011;21385;50.878;8.050;2022-07-06T08:22:02;1.45;;;0.70;;
35257;SDS011;21385;50.878;8.050;2022-07-06T08:24:32;2.22;;;0.80;;
35257;SDS011;21385;50.878;8.050;2022-07-06T08:26:59;2.47;;;0.80;;
35257;SDS011;21385;50.878;8.050;2022-07-06T08:29:25;2.72;;;0.80;;
35257;SDS011;21385;50.878;8.050;2022-07-06T08:31:50;1.90;;;0.98;;
35257;SDS011;21385;50.878;8.050;2022-07-06T08:34:16;3.83;;;1.00;;
35257;SDS011;21385;50.878;8.050;2022-07-06T08:36:41;2.88;;;1.02;;
35257;SDS011;21385;50.878;8.050;2022-07-06T08:39:07;1.80;;;0.70;;
35257;SDS011;21385;50.878;8.050;2022-07-06T08:41:33;3.05;;;1.13;;
35257;SDS011;21385;50.878;8.050;2022-07-06T08:44:00;2.85;;;0.80;;
35257;SDS011;21385;50.878;8.050;2022-07-06T08:46:27;1.85;;;0.90;;
35257;SDS011;21385;50.878;8.050;2022-07-06T08:48:54;3.25;;;1.10;;
35257;SDS011;21385;50.878;8.050;2022-07-06T08:51:20;3.65;;;0.80;;
35257;SDS011;21385;50.878;8.050;2022-07-06T08:53:48;3.33;;;0.80;;
35257;SDS011;21385;50.878;8.050;2022-07-06T08:56:15;2.58;;;1.10;;
35257;SDS011;21385;50.878;8.050;2022-07-06T08:58:41;3.55;;;1.05;;
35257;SDS011;21385;50.878;8.050;2022-07-06T09:01:08;4.25;;;0.90;;
35257;SDS011;21385;50.878;8.050;2022-07-06T09:03:35;2.75;;;0.88;;
35257;SDS011;21385;50.878;8.050;2022-07-06T09:06:01;2.55;;;0.60;;
35257;SDS011;21385;50.878;8.050;2022-07-06T09:08:27;3.35;;;1.10;;
35257;SDS011;21385;50.878;8.050;2022-07-06T09:10:55;2.95;;;0.82;;
35257;SDS011;21385;50.878;8.050;2022-07-06T09:13:21;1.08;;;0.73;;
35257;SDS011;21385;50.878;8.050;2022-07-06T09:15:47;2.53;;;0.95;;
35257;SDS011;21385;50.878;8.050;2022-07-06T09:18:13;2.75;;;0.93;;
35257;SDS011;21385;50.878;8.050;2022-07-06T09:20:40;3.70;;;0.75;;
35257;SDS011;21385;50.878;8.050;2022-07-06T09:23:06;6.30;;;1.02;;
35257;SDS011;21385;50.878;8.050;2022-07-06T09:25:32;6.25;;;1.17;;
35257;SDS011;21385;50.878;8.050;2022-07-06T09:27:59;2.88;;;0.77;;
35257;SDS011;21385;50.878;8.050;2022-07-06T09:30:27;3.58;;;0.88;;
35257;SDS011;21385;50.878;8.050;2022-07-06T09:32:55;2.17;;;0.93;;
35257;SDS011;21385;50.878;8.050;2022-07-06T09:35:26;2.28;;;0.98;;
35257;SDS011;21385;50.878;8.050;2022-07-06T09:38:00;2.50;;;1.10;;
35257;SDS011;21385;50.878;8.050;2022-07-06T09:40:25;3.25;;;1.00;;
35257;SDS011;21385;50.878;8.050;2022-07-06T09:42:51;2.72;;;0.82;;
35257;SDS011;21385;50.878;8.050;2022-07-06T09:45:32;5.70;;;1.20;;
35257;SDS011;21385;50.878;8.050;2022-07-06T09:48:06;2.63;;;0.93;;
35257;SDS011;21385;50.878;8.050;2022-07-06T09:50:54;2.00;;;0.80;;
35257;SDS011;21385;50.878;8.050;2022-07-06T09:53:22;4.55;;;0.80;;
35257;SDS011;21385;50.878;8.050;2022-07-06T09:55:50;3.22;;;0.95;;
35257;SDS011;21385;50.878;8.050;2022-07-06T09:58:17;2.25;;;1.00;;
35257;SDS011;21385;50.878;8.050;2022-07-06T10:00:44;2.67;;;0.80;;
35257;SDS011;21385;50.878;8.050;2022-07-06T10:03:11;1.95;;;0.90;;
35257;SDS011;21385;50.878;8.050;2022-07-06T10:05:39;1.23;;;0.82;;
35257;SDS011;21385;50.878;8.050;2022-07-06T10:08:06;3.47;;;0.75;;
35257;SDS011;21385;50.878;8.050;2022-07-06T10:10:34;2.55;;;1.00;;
35257;SDS011;21385;50.878;8.050;2022-07-06T10:13:01;3.65;;;1.10;;
35257;SDS011;21385;50.878;8.050;2022-07-06T10:15:29;2.47;;;0.80;;
35257;SDS011;21385;50.878;8.050;2022-07-06T10:17:59;2.13;;;1.02;;
35257;SDS011;21385;50.878;8.050;2022-07-06T10:20:30;6.05;;;1.13;;
35257;SDS011;21385;50.878;8.050;2022-07-06T10:25:24;1.48;;;0.80;;
35257;SDS011;21385;50.878;8.050;2022-07-06T10:27:50;3.63;;;0.93;;
35257;SDS011;21385;50.878;8.050;2022-07-06T10:30:17;3.75;;;0.90;;
35257;SDS011;21385;50.878;8.050;2022-07-06T10:32:43;5.20;;;0.85;;
35257;SDS011;21385;50.878;8.050;2022-07-06T10:35:11;5.25;;;0.93;;
35257;SDS011;21385;50.878;8.050;2022-07-06T10:37:38;1.65;;;0.68;;
35257;SDS011;21385;50.878;8.050;2022-07-06T10:40:04;3.45;;;1.00;;
35257;SDS011;21385;50.878;8.050;2022-07-06T10:42:57;3.08;;;0.90;;
35257;SDS011;21385;50.878;8.050;2022-07-06T10:53:58;3.67;;;0.80;;
35257;SDS011;21385;50.878;8.050;2022-07-06T10:56:06;2.50;;;0.60;;
35257;SDS011;21385;50.878;8.050;2022-07-06T11:01:08;3.15;;;1.00;;
35257;SDS011;21385;50.878;8.050;2022-07-06T11:03:36;2.97;;;1.20;;
35257;SDS011;21385;50.878;8.050;2022-07-06T11:06:09;1.20;;;0.75;;
35257;SDS011;21385;50.878;8.050;2022-07-06T11:08:48;6.38;;;1.27;;
35257;SDS011;21385;50.878;8.050;2022-07-06T11:11:24;2.22;;;0.90;;
35257;SDS011;21385;50.878;8.050;2022-07-06T11:14:06;1.58;;;0.75;;
35257;SDS011;21385;50.878;8.050;2022-07-06T11:17:19;3.60;;;0.80;;
35257;SDS011;21385;50.878;8.050;2022-07-06T11:19:21;3.42;;;1.00;;
35257;SDS011;21385;50.878;8.050;2022-07-06T11:21:51;4.87;;;1.00;;
35257;SDS011;21385;50.878;8.050;2022-07-06T11:24:28;2.33;;;0.70;;
35257;SDS011;21385;50.878;8.050;2022-07-06T11:26:55;1.98;;;0.90;;
35257;SDS011;21385;50.878;8.050;2022-07-06T11:29:22;2.78;;;0.80;;
35257;SDS011;21385;50.878;8.050;2022-07-06T11:31:53;2.80;;;0.90;;
35257;SDS011;21385;50.878;8.050;2022-07-06T11:34:25;3.63;;;0.80;;
35257;SDS011;21385;50.878;8.050;2022-07-06T11:36:56;4.03;;;0.70;;
35257;SDS011;21385;50.878;8.050;2022-07-06T11:39:29;4.63;;;1.00;;
35257;SDS011;21385;50.878;8.050;2022-07-06T11:41:56;2.92;;;0.80;;
35257;SDS011;21385;50.878;8.050;2022-07-06T11:44:22;3.13;;;0.90;;
35257;SDS011;21385;50.878;8.050;2022-07-06T11:46:48;3.58;;;0.90;;
35257;SDS011;21385;50.878;8.050;2022-07-06T11:49:14;2.28;;;0.80;;
35257;SDS011;21385;50.878;8.050;2022-07-06T11:51:41;1.35;;;0.88;;
35257;SDS011;21385;50.878;8.050;2022-07-06T11:54:11;2.45;;;0.68;;
35257;SDS011;21385;50.878;8.050;2022-07-06T11:56:52;6.10;;;1.00;;
35257;SDS011;21385;50.878;8.050;2022-07-06T11:59:21;3.42;;;0.95;;
35257;SDS011;21385;50.878;8.050;2022-07-06T12:01:48;2.72;;;0.90;;
35257;SDS011;21385;50.878;8.050;2022-07-06T12:04:14;6.25;;;0.80;;
35257;SDS011;21385;50.878;8.050;2022-07-06T12:06:39;2.63;;;0.80;;
35257;SDS011;21385;50.878;8.050;2022-07-06T12:09:05;3.20;;;0.85;;
35257;SDS011;21385;50.878;8.050;2022-07-06T12:11:35;3.38;;;1.08;;
35257;SDS011;21385;50.878;8.050;2022-07-06T12:14:02;1.60;;;0.80;;
35257;SDS011;21385;50.878;8.050;2022-07-06T12:16:38;3.13;;;0.68;;
35257;SDS011;21385;50.878;8.050;2022-07-06T12:19:04;2.25;;;0.70;;
35257;SDS011;21385;50.878;8.050;2022-07-06T12:21:31;2.67;;;0.90;;
35257;SDS011;21385;50.878;8.050;2022-07-06T12:23:58;3.13;;;0.98;;
35257;SDS011;21385;50.878;8.050;2022-07-06T12:26:24;2.75;;;1.02;;
35257;SDS011;21385;50.878;8.050;2022-07-06T12:31:38;2.13;;;0.68;;
35257;SDS011;21385;50.878;8.050;2022-07-06T12:34:13;1.88;;;0.80;;
35257;SDS011;21385;50.878;8.050;2022-07-06T12:36:43;2.53;;;1.00;;
35257;SDS011;21385;50.878;8.050;2022-07-06T12:39:13;3.65;;;0.80;;
35257;SDS011;21385;50.878;8.050;2022-07-06T12:41:43;2.73;;;0.90;;
35257;SDS011;21385;50.878;8.050;2022-07-06T12:44:13;3.30;;;0.90;;
35257;SDS011;21385;50.878;8.050;2022-07-06T12:46:41;3.63;;;0.75;;
35257;SDS011;21385;50.878;8.050;2022-07-06T12:49:11;1.83;;;0.73;;
35257;SDS011;21385;50.878;8.050;2022-07-06T12:51:49;2.63;;;0.70;;
35257;SDS011;21385;50.878;8.050;2022-07-06T12:54:27;2.30;;;0.77;;
35257;SDS011;21385;50.878;8.050;2022-07-06T12:59:23;1.70;;;0.70;;
35257;SDS011;21385;50.878;8.050;2022-07-06T13:01:49;1.42;;;0.70;;
35257;SDS011;21385;50.878;8.050;2022-07-06T13:04:16;3.50;;;0.85;;
35257;SDS011;21385;50.878;8.050;2022-07-06T13:06:42;4.18;;;0.77;;
35257;SDS011;21385;50.878;8.050;2022-07-06T13:09:08;2.70;;;0.95;;
35257;SDS011;21385;50.878;8.050;2022-07-06T13:11:33;2.20;;;0.88;;
35257;SDS011;21385;50.878;8.050;2022-07-06T13:13:59;3.58;;;1.10;;
35257;SDS011;21385;50.878;8.050;2022-07-06T13:16:25;1.70;;;1.05;;
35257;SDS011;21385;50.878;8.050;2022-07-06T13:18:55;1.83;;;1.10;;
35257;SDS011;21385;50.878;8.050;2022-07-06T13:21:21;2.50;;;1.30;;
35257;SDS011;21385;50.878;8.050;2022-07-06T13:23:46;5.18;;;1.20;;
35257;SDS011;21385;50.878;8.050;2022-07-06T13:26:12;5.32;;;1.27;;
35257;SDS011;21385;50.878;8.050;2022-07-06T13:28:38;2.75;;;1.00;;
35257;SDS011;21385;50.878;8.050;2022-07-06T13:31:04;5.20;;;1.33;;
35257;SDS011;21385;50.878;8.050;2022-07-06T13:33:30;3.22;;;1.40;;
35257;SDS011;21385;50.878;8.050;2022-07-06T13:35:55;3.13;;;1.48;;
35257;SDS011;21385;50.878;8.050;2022-07-06T13:38:21;1.88;;;1.20;;
35257;SDS011;21385;50.878;8.050;2022-07-06T13:40:46;1.70;;;1.00;;
35257;SDS011;21385;50.878;8.050;2022-07-06T13:43:12;3.10;;;0.93;;
35257;SDS011;21385;50.878;8.050;2022-07-06T13:45:38;2.22;;;1.10;;
35257;SDS011;21385;50.878;8.050;2022-07-06T13:48:03;2.50;;;1.20;;
35257;SDS011;21385;50.878;8.050;2022-07-06T13:50:29;2.42;;;1.02;;
35257;SDS011;21385;50.878;8.050;2022-07-06T13:52:57;1.95;;;1.00;;
35257;SDS011;21385;50.878;8.050;2022-07-06T13:55:23;1.25;;;0.90;;
35257;SDS011;21385;50.878;8.050;2022-07-06T13:57:49;2.13;;;1.10;;
35257;SDS011;21385;50.878;8.050;2022-07-06T14:00:14;3.15;;;0.95;;
35257;SDS011;21385;50.878;8.050;2022-07-06T14:02:43;3.38;;;0.90;;
35257;SDS011;21385;50.878;8.050;2022-07-06T14:05:09;2.58;;;1.00;;
35257;SDS011;21385;50.878;8.050;2022-07-06T14:07:35;2.78;;;0.90;;
35257;SDS011;21385;50.878;8.050;2022-07-06T14:10:01;3.10;;;0.98;;
35257;SDS011;21385;50.878;8.050;2022-07-06T14:12:27;2.22;;;1.00;;
35257;SDS011;21385;50.878;8.050;2022-07-06T14:14:52;1.60;;;0.90;;
35257;SDS011;21385;50.878;8.050;2022-07-06T14:17:18;3.92;;;0.90;;
35257;SDS011;21385;50.878;8.050;2022-07-06T14:19:44;3.15;;;0.77;;
35257;SDS011;21385;50.878;8.050;2022-07-06T14:22:09;2.70;;;1.05;;
35257;SDS011;21385;50.878;8.050;2022-07-06T14:24:35;1.48;;;0.90;;
35257;SDS011;21385;50.878;8.050;2022-07-06T14:27:01;2.13;;;1.00;;
35257;SDS011;21385;50.878;8.050;2022-07-06T14:29:26;9.93;;;1.05;;
35257;SDS011;21385;50.878;8.050;2022-07-06T14:31:52;2.10;;;0.90;;
35257;SDS011;21385;50.878;8.050;2022-07-06T14:34:18;1.35;;;0.88;;
35257;SDS011;21385;50.878;8.050;2022-07-06T14:36:43;1.80;;;0.57;;
35257;SDS011;21385;50.878;8.050;2022-07-06T14:39:09;1.15;;;0.70;;
35257;SDS011;21385;50.878;8.050;2022-07-06T14:41:37;1.90;;;0.80;;
35257;SDS011;21385;50.878;8.050;2022-07-06T14:44:05;3.88;;;0.90;;
35257;SDS011;21385;50.878;8.050;2022-07-06T14:46:31;2.10;;;0.90;;
35257;SDS011;21385;50.878;8.050;2022-07-06T14:48:56;1.83;;;0.82;;
35257;SDS011;21385;50.878;8.050;2022-07-06T14:51:22;1.75;;;1.00;;
35257;SDS011;21385;50.878;8.050;2022-07-06T14:53:48;1.08;;;0.98;;
35257;SDS011;21385;50.878;8.050;2022-07-06T14:56:13;2.88;;;1.20;;
35257;SDS011;21385;50.878;8.050;2022-07-06T14:58:39;1.00;;;0.60;;
35257;SDS011;21385;50.878;8.050;2022-07-06T15:01:04;2.22;;;0.90;;
35257;SDS011;21385;50.878;8.050;2022-07-06T15:03:30;2.97;;;1.13;;
35257;SDS011;21385;50.878;8.050;2022-07-06T15:05:56;2.83;;;1.10;;